createdAt,value
2018-09-12T00:00:48.950Z,21.13
2018-09-12T00:03:17.688Z,19.93
2018-09-12T00:05:46.393Z,16.00
2018-09-12T00:08:15.184Z,19.43
2018-09-12T00:10:43.961Z,20.70
2018-09-12T00:13:12.603Z,18.70
2018-09-12T00:15:41.569Z,20.70
2018-09-12T00:18:10.603Z,31.10
2018-09-12T00:20:39.281Z,23.27
2018-09-12T00:23:08.150Z,23.47
2018-09-12T00:25:37.140Z,20.50
2018-09-12T00:28:06.215Z,23.70
2018-09-12T00:30:35.460Z,20.97
2018-09-12T00:33:04.353Z,20.07
2018-09-12T00:35:33.116Z,24.20
2018-09-12T00:38:02.830Z,23.53
2018-09-12T00:40:31.624Z,20.37
2018-09-12T00:43:00.546Z,21.67
2018-09-12T00:45:29.326Z,22.43
2018-09-12T00:47:58.073Z,19.57
2018-09-12T00:50:27.009Z,22.63
2018-09-12T00:52:55.908Z,20.27
2018-09-12T00:55:24.695Z,24.23
2018-09-12T00:57:53.585Z,26.67
2018-09-12T01:00:22.266Z,23.63
2018-09-12T01:02:50.980Z,21.50
2018-09-12T01:05:19.789Z,24.03
2018-09-12T01:07:49.118Z,18.47
2018-09-12T01:10:17.857Z,22.20
2018-09-12T01:12:47.957Z,25.87
2018-09-12T01:15:17.075Z,21.17
2018-09-12T01:17:46.062Z,20.57
2018-09-12T01:20:15.522Z,22.03
2018-09-12T01:22:44.405Z,20.67
2018-09-12T01:25:13.243Z,22.17
2018-09-12T01:27:41.977Z,24.17
2018-09-12T01:30:15.023Z,21.13
2018-09-12T01:32:43.659Z,24.30
2018-09-12T01:35:12.433Z,23.20
2018-09-12T01:37:41.071Z,21.70
2018-09-12T01:40:09.817Z,19.23
2018-09-12T01:42:38.567Z,22.27
2018-09-12T01:45:07.291Z,24.13
2018-09-12T01:47:36.024Z,20.33
2018-09-12T01:50:05.614Z,21.75
2018-09-12T01:52:34.389Z,18.67
2018-09-12T01:55:03.680Z,18.17
2018-09-12T01:57:32.445Z,19.67
2018-09-12T02:00:01.158Z,20.03
2018-09-12T02:02:29.969Z,19.77
2018-09-12T02:04:58.971Z,18.13
2018-09-12T02:07:27.762Z,22.60
2018-09-12T02:09:56.550Z,18.80
2018-09-12T02:12:25.573Z,19.17
2018-09-12T02:14:54.336Z,20.37
2018-09-12T02:17:22.987Z,20.80
2018-09-12T02:19:51.727Z,18.43
2018-09-12T02:22:20.418Z,18.70
2018-09-12T02:24:49.201Z,18.30
2018-09-12T02:27:17.846Z,20.90
2018-09-12T02:33:07.726Z,15.73
2018-09-12T02:35:40.597Z,16.70
2018-09-12T02:38:09.366Z,15.77
2018-09-12T02:40:38.281Z,19.60
2018-09-12T02:43:07.033Z,19.10
2018-09-12T02:45:35.757Z,19.73
2018-09-12T02:48:04.538Z,19.27
2018-09-12T02:50:34.355Z,18.35
2018-09-12T02:53:03.998Z,17.77
2018-09-12T02:55:32.789Z,21.80
2018-09-12T02:58:01.544Z,18.17
2018-09-12T03:00:30.513Z,17.93
2018-09-12T03:02:59.209Z,17.13
2018-09-12T03:05:28.700Z,18.33
2018-09-12T03:07:57.561Z,16.47
2018-09-12T03:10:26.337Z,15.77
2018-09-12T03:12:55.181Z,17.73
2018-09-12T03:15:23.923Z,17.77
2018-09-12T03:17:52.834Z,18.80
2018-09-12T03:20:21.609Z,16.43
2018-09-12T03:22:50.334Z,16.63
2018-09-12T03:25:19.023Z,18.97
2018-09-12T03:27:47.817Z,18.77
2018-09-12T03:30:16.594Z,16.00
2018-09-12T03:32:46.717Z,15.37
2018-09-12T03:35:15.488Z,16.37
2018-09-12T03:37:45.203Z,18.60
2018-09-12T03:40:13.940Z,16.70
2018-09-12T03:42:42.693Z,16.67
2018-09-12T03:45:11.417Z,15.93
2018-09-12T03:47:40.107Z,16.33
2018-09-12T03:50:08.925Z,14.87
2018-09-12T03:52:37.773Z,14.73
2018-09-12T03:55:06.583Z,15.10
2018-09-12T03:57:41.893Z,17.23
2018-09-12T04:00:10.977Z,17.60
2018-09-12T04:02:40.588Z,20.30
2018-09-12T04:05:09.388Z,17.17
2018-09-12T04:07:38.239Z,21.57
2018-09-12T04:10:08.120Z,16.37
2018-09-12T04:12:38.228Z,17.57
2018-09-12T04:15:07.154Z,19.03
2018-09-12T04:17:37.670Z,19.60
2018-09-12T04:20:06.557Z,20.83
2018-09-12T04:22:35.326Z,17.67
2018-09-12T04:25:03.990Z,16.87
2018-09-12T04:27:32.743Z,24.50
2018-09-12T04:30:01.530Z,20.67
2018-09-12T04:32:30.424Z,17.53
2018-09-12T04:35:00.195Z,19.30
2018-09-12T04:37:28.912Z,22.27
2018-09-12T04:39:57.972Z,21.63
2018-09-12T04:42:26.925Z,19.30
2018-09-12T04:44:55.770Z,17.97
2018-09-12T04:47:24.806Z,18.83
2018-09-12T04:49:53.982Z,17.47
2018-09-12T04:52:22.634Z,21.33
2018-09-12T04:54:51.334Z,18.73
2018-09-12T04:57:20.030Z,17.90
2018-09-12T04:59:48.778Z,17.10
2018-09-12T05:02:17.591Z,16.70
2018-09-12T05:04:46.447Z,20.37
2018-09-12T05:07:15.114Z,19.57
2018-09-12T05:09:44.776Z,15.37
2018-09-12T05:12:13.605Z,15.58
2018-09-12T05:14:42.260Z,17.50
2018-09-12T05:17:11.033Z,15.47
2018-09-12T05:19:39.719Z,19.20
2018-09-12T05:22:08.995Z,17.00
2018-09-12T05:24:37.798Z,18.57
2018-09-12T05:27:06.455Z,19.97
2018-09-12T05:29:35.304Z,18.93
2018-09-12T05:32:04.165Z,16.77
2018-09-12T05:34:32.908Z,18.70
2018-09-12T05:37:01.593Z,17.63
2018-09-12T05:39:30.438Z,18.97
2018-09-12T05:41:59.069Z,16.43
2018-09-12T05:44:27.870Z,15.97
2018-09-12T05:46:57.216Z,19.17
2018-09-12T05:49:26.941Z,17.43
2018-09-12T05:51:55.686Z,19.87
2018-09-12T05:54:24.417Z,24.13
2018-09-12T05:56:53.033Z,17.03
2018-09-12T05:59:22.649Z,20.60
2018-09-12T06:01:51.360Z,21.83
2018-09-12T06:04:20.105Z,19.53
2018-09-12T06:06:49.001Z,22.23
2018-09-12T06:09:17.650Z,26.50
2018-09-12T06:11:47.268Z,23.83
2018-09-12T06:14:16.041Z,37.47
2018-09-12T06:16:44.685Z,28.90
2018-09-12T06:19:13.327Z,22.57
2018-09-12T06:21:41.991Z,22.57
2018-09-12T06:24:10.570Z,23.27
2018-09-12T06:26:39.253Z,17.60
2018-09-12T06:29:08.047Z,11.27
2018-09-12T06:31:36.658Z,10.63
2018-09-12T06:34:05.413Z,12.27
2018-09-12T06:36:34.018Z,10.40
2018-09-12T06:39:02.722Z,13.13
2018-09-12T06:41:31.395Z,15.70
2018-09-12T06:44:00.062Z,14.90
2018-09-12T06:46:28.781Z,16.70
2018-09-12T06:48:57.386Z,14.03
2018-09-12T06:51:26.022Z,13.03
2018-09-12T06:53:54.653Z,11.33
2018-09-12T06:56:23.491Z,12.47
2018-09-12T06:58:52.137Z,8.83
2018-09-12T07:01:20.854Z,13.00
2018-09-12T07:03:49.550Z,10.63
2018-09-12T07:06:18.239Z,12.87
2018-09-12T07:08:46.960Z,10.20
2018-09-12T07:11:15.599Z,9.50
2018-09-12T07:13:44.270Z,7.87
2018-09-12T07:16:12.881Z,11.87
2018-09-12T07:18:41.465Z,8.83
2018-09-12T07:21:10.956Z,9.50
2018-09-12T07:23:39.626Z,8.97
2018-09-12T07:26:08.531Z,8.83
2018-09-12T07:28:38.010Z,9.50
2018-09-12T07:31:07.634Z,11.50
2018-09-12T07:33:36.663Z,6.60
2018-09-12T07:36:05.377Z,6.83
2018-09-12T07:38:34.022Z,9.20
2018-09-12T07:41:02.955Z,5.40
2018-09-12T07:43:31.599Z,7.73
2018-09-12T07:46:00.238Z,5.90
2018-09-12T07:48:28.924Z,9.60
2018-09-12T07:50:57.507Z,7.77
2018-09-12T07:53:26.157Z,8.13
2018-09-12T07:55:54.892Z,7.33
2018-09-12T07:58:23.622Z,7.53
2018-09-12T08:00:52.346Z,6.50
2018-09-12T08:03:21.019Z,9.93
2018-09-12T08:05:49.710Z,7.87
2018-09-12T08:08:18.325Z,8.80
2018-09-12T08:10:47.022Z,10.87
2018-09-12T08:13:15.647Z,10.23
2018-09-12T08:15:44.372Z,10.57
2018-09-12T08:18:13.022Z,9.73
2018-09-12T08:20:41.783Z,11.30
2018-09-12T08:23:11.672Z,9.40
2018-09-12T08:25:40.401Z,11.83
2018-09-12T08:28:09.141Z,6.87
2018-09-12T08:30:38.046Z,7.67
2018-09-12T08:33:06.475Z,6.00
2018-09-12T08:35:35.506Z,8.23
2018-09-12T08:38:05.163Z,8.03
2018-09-12T08:40:33.915Z,6.80
2018-09-12T08:43:03.017Z,7.70
2018-09-12T08:45:31.735Z,7.13
2018-09-12T08:48:00.591Z,7.17
2018-09-12T08:50:29.226Z,8.10
2018-09-12T08:52:57.935Z,9.20
2018-09-12T08:55:26.815Z,5.37
2018-09-12T08:57:55.761Z,6.60
2018-09-12T09:00:28.696Z,6.83
2018-09-12T09:02:57.297Z,11.83
2018-09-12T09:05:26.025Z,4.67
2018-09-12T09:07:54.749Z,6.97
2018-09-12T09:10:23.456Z,4.80
2018-09-12T09:12:52.131Z,5.80
2018-09-12T09:15:21.755Z,6.30
2018-09-12T09:17:50.375Z,6.43
2018-09-12T09:20:19.121Z,6.00
2018-09-12T09:22:48.033Z,4.70
2018-09-12T09:25:16.763Z,4.83
2018-09-12T09:27:45.841Z,6.07
2018-09-12T09:30:14.888Z,8.47
2018-09-12T09:32:44.905Z,5.83
2018-09-12T09:35:13.451Z,6.80
2018-09-12T09:37:42.259Z,6.50
2018-09-12T09:40:11.948Z,4.53
2018-09-12T09:42:40.757Z,6.23
2018-09-12T09:45:09.533Z,3.73
2018-09-12T09:47:38.311Z,8.60
2018-09-12T09:50:07.030Z,4.77
2018-09-12T09:52:35.788Z,4.27
2018-09-12T09:55:04.513Z,5.23
2018-09-12T09:57:34.345Z,3.50
2018-09-12T10:00:02.979Z,5.03
2018-09-12T10:02:36.809Z,5.43
2018-09-12T10:05:10.802Z,5.57
2018-09-12T10:07:44.707Z,12.60
2018-09-12T10:10:13.384Z,5.67
2018-09-12T10:12:42.198Z,5.20
2018-09-12T10:15:11.034Z,6.53
2018-09-12T10:17:39.629Z,3.50
2018-09-12T10:20:08.696Z,6.53
2018-09-12T10:22:37.334Z,4.23
2018-09-12T10:25:06.069Z,10.73
2018-09-12T10:27:34.925Z,4.97
2018-09-12T10:30:03.670Z,4.83
2018-09-12T10:32:32.138Z,4.87
2018-09-12T10:35:00.694Z,5.23
2018-09-12T10:37:29.495Z,3.47
2018-09-12T10:39:58.037Z,5.77
2018-09-12T10:42:27.729Z,8.40
2018-09-12T10:44:56.248Z,6.20
2018-09-12T10:47:25.796Z,3.30
2018-09-12T10:49:54.451Z,5.37
2018-09-12T10:52:23.267Z,5.47
2018-09-12T10:54:51.850Z,3.87
2018-09-12T10:57:20.520Z,10.30
2018-09-12T10:59:49.095Z,4.90
2018-09-12T11:02:18.214Z,3.30
2018-09-12T11:04:46.782Z,4.50
2018-09-12T11:07:15.385Z,4.37
2018-09-12T11:09:44.570Z,8.03
2018-09-12T11:12:12.997Z,5.23
2018-09-12T11:14:41.614Z,6.63
2018-09-12T11:17:10.221Z,24.00
2018-09-12T11:19:38.727Z,4.67
2018-09-12T11:22:07.265Z,7.20
2018-09-12T11:24:35.826Z,4.43
2018-09-12T11:27:04.394Z,4.90
2018-09-12T11:29:33.027Z,5.03
2018-09-12T11:32:01.678Z,6.22
2018-09-12T11:34:30.254Z,3.98
2018-09-12T11:36:58.852Z,5.03
2018-09-12T11:39:28.254Z,5.53
2018-09-12T11:41:57.631Z,3.50
2018-09-12T11:44:26.125Z,4.42
2018-09-12T11:46:54.545Z,5.85
2018-09-12T11:49:23.174Z,4.10
2018-09-12T11:51:51.700Z,4.85
2018-09-12T11:54:20.347Z,5.03
2018-09-12T11:56:49.712Z,7.80
2018-09-12T11:59:18.321Z,10.55
2018-09-12T12:01:46.972Z,4.67
2018-09-12T12:04:16.693Z,7.30
2018-09-12T12:06:45.230Z,4.53
2018-09-12T12:09:13.876Z,5.58
2018-09-12T12:11:42.506Z,4.78
2018-09-12T12:14:11.063Z,4.60
2018-09-12T12:16:40.312Z,6.90
2018-09-12T12:19:09.029Z,5.67
2018-09-12T12:21:37.567Z,7.72
2018-09-12T12:24:06.476Z,4.90
2018-09-12T12:26:35.616Z,6.00
2018-09-12T12:29:04.471Z,9.08
2018-09-12T12:31:33.173Z,8.80
2018-09-12T12:34:01.682Z,8.25
2018-09-12T12:36:31.076Z,5.55
2018-09-12T12:38:59.568Z,3.85
2018-09-12T12:41:28.240Z,6.20
2018-09-12T12:43:57.162Z,7.65
2018-09-12T12:46:25.765Z,4.55
2018-09-12T12:48:54.334Z,4.62
2018-09-12T12:51:24.993Z,4.83
2018-09-12T12:53:53.667Z,5.62
2018-09-12T12:56:23.041Z,7.45
2018-09-12T12:58:51.562Z,9.58
2018-09-12T13:01:20.284Z,6.10
2018-09-12T13:03:48.937Z,7.87
2018-09-12T13:06:17.474Z,4.37
2018-09-12T13:08:46.031Z,9.05
2018-09-12T13:11:14.698Z,5.60
2018-09-12T13:13:43.158Z,4.92
2018-09-12T13:16:11.582Z,4.12
2018-09-12T13:18:40.278Z,6.45
2018-09-12T13:21:08.869Z,5.33
2018-09-12T13:23:38.064Z,7.70
2018-09-12T13:26:07.387Z,8.38
2018-09-12T13:28:36.675Z,6.62
2018-09-12T13:31:05.270Z,5.05
2018-09-12T13:33:33.998Z,7.92
2018-09-12T13:36:02.462Z,6.05
2018-09-12T13:38:32.919Z,7.78
2018-09-12T13:41:02.450Z,7.20
2018-09-12T13:43:30.966Z,6.92
2018-09-12T13:45:59.543Z,12.00
2018-09-12T13:48:28.281Z,7.95
2018-09-12T13:50:59.077Z,5.17
2018-09-12T13:53:27.649Z,15.10
2018-09-12T13:55:56.157Z,3.33
2018-09-12T13:58:26.089Z,7.03
2018-09-12T14:00:54.666Z,5.17
2018-09-12T14:03:23.301Z,4.67
2018-09-12T14:05:51.841Z,3.95
2018-09-12T14:08:20.684Z,4.55
2018-09-12T14:10:49.160Z,5.17
2018-09-12T14:13:17.626Z,4.40
2018-09-12T14:15:46.226Z,3.40
2018-09-12T14:18:14.718Z,4.25
2018-09-12T14:20:43.374Z,4.08
2018-09-12T14:23:12.176Z,5.70
2018-09-12T14:25:40.841Z,6.20
2018-09-12T14:28:09.445Z,7.47
2018-09-12T14:30:38.189Z,11.83
2018-09-12T14:33:06.705Z,6.12
2018-09-12T14:35:35.289Z,5.37
2018-09-12T14:38:05.839Z,5.15
2018-09-12T14:40:34.429Z,4.95
2018-09-12T14:43:03.018Z,5.17
2018-09-12T14:45:31.861Z,8.65
2018-09-12T14:48:01.737Z,5.85
2018-09-12T14:50:30.348Z,5.75
2018-09-12T14:52:59.155Z,4.75
2018-09-12T14:55:27.658Z,8.10
2018-09-12T14:57:56.380Z,9.25
2018-09-12T15:00:26.786Z,7.78
2018-09-12T15:02:57.902Z,9.55
2018-09-12T15:05:26.897Z,7.08
2018-09-12T15:07:56.105Z,8.15
2018-09-12T15:10:24.974Z,14.68
2018-09-12T15:12:53.639Z,5.78
2018-09-12T15:15:22.169Z,6.20
2018-09-12T15:17:50.709Z,7.30
2018-09-12T15:20:19.289Z,11.10
2018-09-12T15:22:47.905Z,7.60
2018-09-12T15:25:16.714Z,5.65
2018-09-12T15:27:45.361Z,4.92
2018-09-12T15:30:14.977Z,9.57
2018-09-12T15:32:43.562Z,26.25
2018-09-12T15:35:12.186Z,8.78
2018-09-12T15:37:41.164Z,8.95
2018-09-12T15:40:10.419Z,6.20
2018-09-12T15:42:39.857Z,7.12
2018-09-12T15:45:08.487Z,7.03
2018-09-12T15:47:37.068Z,11.35
2018-09-12T15:50:06.053Z,6.75
2018-09-12T15:52:34.728Z,6.95
2018-09-12T15:55:03.407Z,9.00
2018-09-12T15:57:31.874Z,9.50
2018-09-12T16:00:01.404Z,8.33
2018-09-12T16:02:29.993Z,10.23
2018-09-12T16:04:58.687Z,7.22
2018-09-12T16:07:27.442Z,6.80
2018-09-12T16:09:56.022Z,7.72
2018-09-12T16:12:24.655Z,5.62
2018-09-12T16:14:53.240Z,8.08
2018-09-12T16:17:21.833Z,6.15
2018-09-12T16:19:50.513Z,5.25
2018-09-12T16:22:18.974Z,6.67
2018-09-12T16:24:47.493Z,7.67
2018-09-12T16:27:17.225Z,7.83
2018-09-12T16:29:45.913Z,6.90
2018-09-12T16:32:16.333Z,5.67
2018-09-12T16:34:44.839Z,8.23
2018-09-12T16:37:14.034Z,8.47
2018-09-12T16:39:42.670Z,8.93
2018-09-12T16:42:17.136Z,8.07
2018-09-12T16:44:45.839Z,9.03
2018-09-12T16:47:18.023Z,14.53
2018-09-12T16:49:59.157Z,17.53
2018-09-12T16:52:51.760Z,16.27
2018-09-12T16:55:21.108Z,14.17
2018-09-12T16:57:49.931Z,18.17
2018-09-12T17:00:18.618Z,22.20
2018-09-12T17:02:47.624Z,17.47
2018-09-12T17:05:16.131Z,24.63
2018-09-12T17:07:44.782Z,15.50
2018-09-12T17:10:13.810Z,24.73
2018-09-12T17:12:42.374Z,22.50
2018-09-12T17:15:11.202Z,16.33
2018-09-12T17:17:39.731Z,16.50
2018-09-12T17:20:08.390Z,10.87
2018-09-12T17:22:36.949Z,12.30
2018-09-12T17:25:05.547Z,16.00
2018-09-12T17:27:34.095Z,12.63
2018-09-12T17:30:02.927Z,21.27
2018-09-12T17:32:31.515Z,13.47
2018-09-12T17:35:00.174Z,16.23
2018-09-12T17:37:28.760Z,21.63
2018-09-12T17:39:58.218Z,20.13
2018-09-12T17:42:26.844Z,22.37
2018-09-12T17:44:55.482Z,29.47
2018-09-12T17:47:24.204Z,27.17
2018-09-12T17:49:52.681Z,26.83
2018-09-12T17:52:21.157Z,32.20
2018-09-12T17:54:49.667Z,27.40
2018-09-12T17:57:18.305Z,22.57
2018-09-12T17:59:47.109Z,16.77
2018-09-12T18:02:15.897Z,24.60
2018-09-12T18:04:44.543Z,16.60
2018-09-12T18:07:13.119Z,25.63
2018-09-12T18:09:43.544Z,14.53
2018-09-12T18:12:12.010Z,14.33
2018-09-12T18:14:40.757Z,11.93
2018-09-12T18:17:09.488Z,13.77
2018-09-12T18:19:38.157Z,10.23
2018-09-12T18:22:06.870Z,16.50
2018-09-12T18:24:35.459Z,12.00
2018-09-12T18:27:04.256Z,16.27
2018-09-12T18:29:32.905Z,12.80
2018-09-12T18:32:01.485Z,15.40
2018-09-12T18:34:30.047Z,16.87
2018-09-12T18:36:58.499Z,24.80
2018-09-12T18:39:27.259Z,15.10
2018-09-12T18:41:55.993Z,13.80
2018-09-12T18:44:24.596Z,13.67
2018-09-12T18:46:53.310Z,11.13
2018-09-12T18:49:22.017Z,17.07
2018-09-12T18:51:50.513Z,15.10
2018-09-12T18:54:19.079Z,22.07
2018-09-12T18:56:47.774Z,18.93
2018-09-12T18:59:16.365Z,21.53
2018-09-12T19:01:44.909Z,22.93
2018-09-12T19:04:13.497Z,18.70
2018-09-12T19:06:42.208Z,16.97
2018-09-12T19:09:12.245Z,17.77
2018-09-12T19:11:40.995Z,14.43
2018-09-12T19:14:09.501Z,25.60
2018-09-12T19:16:38.356Z,21.77
2018-09-12T19:19:07.274Z,15.63
2018-09-12T19:21:35.822Z,13.13
2018-09-12T19:24:04.433Z,19.53
2018-09-12T19:26:32.971Z,19.33
2018-09-12T19:29:02.389Z,21.53
2018-09-12T19:31:31.126Z,18.63
2018-09-12T19:34:00.002Z,17.00
2018-09-12T19:36:29.552Z,22.77
2018-09-12T19:38:58.081Z,21.60
2018-09-12T19:41:27.859Z,26.57
2018-09-12T19:43:56.849Z,26.60
2018-09-12T19:46:26.186Z,24.90
2018-09-12T19:48:55.579Z,23.70
2018-09-12T19:51:24.656Z,23.67
2018-09-12T19:53:53.385Z,21.47
2018-09-12T19:56:21.920Z,25.40
2018-09-12T19:58:50.635Z,25.10
2018-09-12T20:01:19.198Z,21.13
2018-09-12T20:03:47.862Z,21.10
2018-09-12T20:06:16.605Z,18.87
2018-09-12T20:08:45.359Z,20.13
2018-09-12T20:11:14.089Z,21.80
2018-09-12T20:13:42.800Z,25.63
2018-09-12T20:16:11.595Z,21.23
2018-09-12T20:18:40.163Z,24.63
2018-09-12T20:21:09.940Z,18.70
2018-09-12T20:23:38.745Z,25.07
2018-09-12T20:26:07.277Z,21.90
2018-09-12T20:28:39.874Z,26.90
2018-09-12T20:31:08.881Z,26.40
2018-09-12T20:33:37.591Z,20.97
2018-09-12T20:36:07.061Z,18.87
2018-09-12T20:38:36.359Z,21.60
2018-09-12T20:41:05.115Z,18.23
2018-09-12T20:43:33.857Z,19.73
2018-09-12T20:46:02.851Z,14.70
2018-09-12T20:48:31.906Z,13.27
2018-09-12T20:51:00.540Z,13.90
2018-09-12T20:53:29.088Z,15.07
2018-09-12T20:55:57.553Z,21.30
2018-09-12T20:58:26.027Z,15.40
2018-09-12T21:00:54.750Z,15.57
2018-09-12T21:03:23.258Z,13.17
2018-09-12T21:05:51.941Z,14.97
2018-09-12T21:08:20.581Z,12.27
2018-09-12T21:10:49.196Z,11.97
2018-09-12T21:13:17.888Z,15.23
2018-09-12T21:15:46.406Z,11.63
2018-09-12T21:18:15.423Z,8.67
2018-09-12T21:20:44.197Z,10.53
2018-09-12T21:23:12.785Z,9.53
2018-09-12T21:25:41.433Z,6.77
2018-09-12T21:28:09.956Z,10.70
2018-09-12T21:30:38.646Z,10.50
2018-09-12T21:33:07.288Z,11.40
2018-09-12T21:35:35.858Z,6.60
2018-09-12T21:38:04.683Z,6.00
2018-09-12T21:40:33.405Z,8.03
2018-09-12T21:43:02.169Z,10.43
2018-09-12T21:45:30.779Z,12.77
2018-09-12T21:47:59.393Z,15.23
2018-09-12T21:50:27.953Z,9.33
2018-09-12T21:52:56.541Z,8.40
2018-09-12T21:55:25.129Z,7.77
2018-09-12T21:57:53.972Z,8.57
2018-09-12T22:00:23.129Z,10.10
2018-09-12T22:02:51.832Z,9.93
2018-09-12T22:05:20.411Z,8.10
2018-09-12T22:07:49.176Z,7.40
2018-09-12T22:10:17.798Z,6.33
2018-09-12T22:12:46.433Z,10.23
2018-09-12T22:15:14.917Z,7.53
2018-09-12T22:17:44.664Z,6.00
2018-09-12T22:20:13.393Z,8.13
2018-09-12T22:22:42.154Z,10.43
2018-09-12T22:25:10.653Z,8.77
2018-09-12T22:27:39.239Z,8.73
2018-09-12T22:30:08.523Z,6.20
2018-09-12T22:32:37.046Z,8.03
2018-09-12T22:35:06.749Z,11.30
2018-09-12T22:37:35.334Z,7.27
2018-09-12T22:40:04.021Z,8.87
2018-09-12T22:42:32.772Z,9.73
2018-09-12T22:45:01.468Z,9.07
2018-09-12T22:47:29.951Z,10.60
2018-09-12T22:49:58.481Z,7.77
2018-09-12T22:52:27.233Z,9.28
2018-09-12T22:54:55.874Z,6.60
2018-09-12T22:57:24.438Z,7.87
2018-09-12T22:59:53.218Z,12.10
2018-09-12T23:02:21.859Z,7.33
2018-09-12T23:04:50.566Z,7.20
2018-09-12T23:07:19.182Z,8.77
2018-09-12T23:09:47.907Z,10.13
2018-09-12T23:12:16.590Z,7.33
2018-09-12T23:14:45.089Z,8.77
2018-09-12T23:17:13.847Z,7.20
2018-09-12T23:19:43.137Z,6.40
2018-09-12T23:22:11.637Z,8.50
2018-09-12T23:24:40.236Z,9.77
2018-09-12T23:27:08.742Z,10.77
2018-09-12T23:29:37.328Z,11.50
2018-09-12T23:32:06.063Z,7.57
2018-09-12T23:34:34.513Z,10.57
2018-09-12T23:37:03.196Z,8.20
2018-09-12T23:39:31.882Z,6.53
2018-09-12T23:42:00.555Z,8.23
2018-09-12T23:44:29.162Z,10.83
2018-09-12T23:46:57.889Z,9.10
2018-09-12T23:49:26.606Z,14.03
2018-09-12T23:51:55.261Z,7.50
2018-09-12T23:54:23.833Z,9.83
2018-09-12T23:56:52.354Z,12.90
2018-09-12T23:59:20.889Z,8.90
